sensor_id;sensor_type;location;lat;lon;timestamp;P1;durP1;ratioP1;P2;durP2;ratioP2
50853;SDS011;44154;45.506;-122.806;2022-10-17T00:01:50;10.48;;;3.05;;
50853;SDS011;44154;45.506;-122.806;2022-10-17T00:04:16;12.40;;;3.38;;
50853;SDS011;44154;45.506;-122.806;2022-10-17T00:06:42;13.85;;;3.40;;
50853;SDS011;44154;45.506;-122.806;2022-10-17T00:09:08;11.55;;;3.30;;
50853;SDS011;44154;45.506;-122.806;2022-10-17T00:11:34;13.57;;;4.07;;
50853;SDS011;44154;45.506;-122.806;2022-10-17T00:14:01;9.63;;;3.10;;
50853;SDS011;44154;45.506;-122.806;2022-10-17T00:16:29;10.85;;;3.15;;
50853;SDS011;44154;45.506;-122.806;2022-10-17T00:18:58;10.07;;;3.80;;
50853;SDS011;44154;45.506;-122.806;2022-10-17T00:21:25;7.63;;;2.60;;
50853;SDS011;44154;45.506;-122.806;2022-10-17T00:23:51;10.20;;;3.63;;
50853;SDS011;44154;45.506;-122.806;2022-10-17T00:26:18;9.00;;;3.40;;
50853;SDS011;44154;45.506;-122.806;2022-10-17T00:28:46;7.32;;;2.67;;
50853;SDS011;44154;45.506;-122.806;2022-10-17T00:31:13;8.38;;;3.25;;
50853;SDS011;44154;45.506;-122.806;2022-10-17T00:33:40;9.40;;;3.47;;
50853;SDS011;44154;45.506;-122.806;2022-10-17T00:36:41;8.80;;;3.53;;
50853;SDS011;44154;45.506;-122.806;2022-10-17T00:39:00;14.50;;;3.78;;
50853;SDS011;44154;45.506;-122.806;2022-10-17T00:41:27;10.32;;;3.15;;
50853;SDS011;44154;45.506;-122.806;2022-10-17T00:46:57;9.32;;;3.38;;
50853;SDS011;44154;45.506;-122.806;2022-10-17T00:49:27;8.77;;;2.90;;
50853;SDS011;44154;45.506;-122.806;2022-10-17T00:51:56;13.18;;;3.40;;
50853;SDS011;44154;45.506;-122.806;2022-10-17T00:54:30;15.15;;;3.75;;
50853;SDS011;44154;45.506;-122.806;2022-10-17T00:57:18;12.30;;;3.83;;
50853;SDS011;44154;45.506;-122.806;2022-10-17T00:59:46;13.77;;;4.28;;
50853;SDS011;44154;45.506;-122.806;2022-10-17T01:02:17;13.68;;;4.78;;
50853;SDS011;44154;45.506;-122.806;2022-10-17T01:04:46;10.48;;;4.25;;
50853;SDS011;44154;45.506;-122.806;2022-10-17T01:07:14;11.20;;;5.10;;
50853;SDS011;44154;45.506;-122.806;2022-10-17T01:09:41;14.10;;;5.13;;
50853;SDS011;44154;45.506;-122.806;2022-10-17T01:14:49;11.90;;;4.68;;
50853;SDS011;44154;45.506;-122.806;2022-10-17T01:17:52;13.25;;;4.63;;
50853;SDS011;44154;45.506;-122.806;2022-10-17T01:34:34;12.45;;;4.30;;
50853;SDS011;44154;45.506;-122.806;2022-10-17T01:37:24;12.15;;;4.05;;
50853;SDS011;44154;45.506;-122.806;2022-10-17T01:39:56;10.65;;;4.60;;
50853;SDS011;44154;45.506;-122.806;2022-10-17T01:45:19;12.30;;;4.30;;
50853;SDS011;44154;45.506;-122.806;2022-10-17T01:47:51;10.52;;;4.20;;
50853;SDS011;44154;45.506;-122.806;2022-10-17T01:50:31;11.35;;;5.00;;
50853;SDS011;44154;45.506;-122.806;2022-10-17T01:53:06;10.40;;;4.05;;
50853;SDS011;44154;45.506;-122.806;2022-10-17T01:55:41;12.75;;;5.85;;
50853;SDS011;44154;45.506;-122.806;2022-10-17T01:58:11;9.30;;;4.60;;
50853;SDS011;44154;45.506;-122.806;2022-10-17T02:00:45;8.27;;;4.80;;
50853;SDS011;44154;45.506;-122.806;2022-10-17T02:03:18;12.25;;;5.03;;
50853;SDS011;44154;45.506;-122.806;2022-10-17T02:05:46;10.27;;;5.72;;
50853;SDS011;44154;45.506;-122.806;2022-10-17T02:08:12;10.18;;;5.15;;
50853;SDS011;44154;45.506;-122.806;2022-10-17T02:15:41;9.60;;;4.68;;
50853;SDS011;44154;45.506;-122.806;2022-10-17T02:21:07;8.40;;;6.22;;
50853;SDS011;44154;45.506;-122.806;2022-10-17T02:23:55;10.38;;;5.72;;
50853;SDS011;44154;45.506;-122.806;2022-10-17T02:26:39;14.25;;;6.90;;
50853;SDS011;44154;45.506;-122.806;2022-10-17T02:29:12;11.05;;;6.35;;
50853;SDS011;44154;45.506;-122.806;2022-10-17T02:31:58;11.70;;;6.20;;
50853;SDS011;44154;45.506;-122.806;2022-10-17T02:34:51;15.20;;;7.25;;
50853;SDS011;44154;45.506;-122.806;2022-10-17T02:37:21;15.20;;;7.60;;
50853;SDS011;44154;45.506;-122.806;2022-10-17T02:39:52;13.63;;;8.27;;
50853;SDS011;44154;45.506;-122.806;2022-10-17T02:42:22;14.15;;;7.80;;
50853;SDS011;44154;45.506;-122.806;2022-10-17T02:44:50;14.18;;;8.30;;
50853;SDS011;44154;45.506;-122.806;2022-10-17T02:47:54;13.63;;;8.32;;
50853;SDS011;44154;45.506;-122.806;2022-10-17T02:50:27;17.50;;;9.23;;
50853;SDS011;44154;45.506;-122.806;2022-10-17T02:53:10;12.32;;;7.90;;
50853;SDS011;44154;45.506;-122.806;2022-10-17T02:55:47;13.77;;;7.75;;
50853;SDS011;44154;45.506;-122.806;2022-10-17T02:58:19;15.50;;;8.07;;
50853;SDS011;44154;45.506;-122.806;2022-10-17T03:00:50;19.08;;;8.70;;
50853;SDS011;44154;45.506;-122.806;2022-10-17T03:03:28;18.27;;;8.07;;
50853;SDS011;44154;45.506;-122.806;2022-10-17T03:05:55;12.02;;;7.78;;
50853;SDS011;44154;45.506;-122.806;2022-10-17T03:08:22;11.57;;;7.72;;
50853;SDS011;44154;45.506;-122.806;2022-10-17T03:10:49;12.88;;;7.90;;
50853;SDS011;44154;45.506;-122.806;2022-10-17T03:13:15;12.57;;;7.57;;
50853;SDS011;44154;45.506;-122.806;2022-10-17T03:15:42;13.85;;;7.72;;
50853;SDS011;44154;45.506;-122.806;2022-10-17T03:18:08;13.95;;;8.07;;
50853;SDS011;44154;45.506;-122.806;2022-10-17T03:20:34;10.85;;;7.18;;
50853;SDS011;44154;45.506;-122.806;2022-10-17T03:23:00;12.38;;;7.88;;
50853;SDS011;44154;45.506;-122.806;2022-10-17T03:25:26;12.70;;;8.23;;
50853;SDS011;44154;45.506;-122.806;2022-10-17T03:27:53;13.73;;;8.25;;
50853;SDS011;44154;45.506;-122.806;2022-10-17T03:30:19;13.18;;;7.80;;
50853;SDS011;44154;45.506;-122.806;2022-10-17T03:32:45;10.90;;;8.07;;
50853;SDS011;44154;45.506;-122.806;2022-10-17T03:35:11;12.45;;;7.93;;
50853;SDS011;44154;45.506;-122.806;2022-10-17T03:37:38;10.63;;;6.78;;
50853;SDS011;44154;45.506;-122.806;2022-10-17T03:40:04;8.93;;;6.15;;
50853;SDS011;44154;45.506;-122.806;2022-10-17T03:42:30;8.57;;;5.47;;
50853;SDS011;44154;45.506;-122.806;2022-10-17T03:44:57;7.72;;;5.80;;
50853;SDS011;44154;45.506;-122.806;2022-10-17T03:47:23;5.72;;;4.38;;
50853;SDS011;44154;45.506;-122.806;2022-10-17T03:49:49;6.75;;;4.22;;
50853;SDS011;44154;45.506;-122.806;2022-10-17T03:52:17;5.85;;;3.97;;
50853;SDS011;44154;45.506;-122.806;2022-10-17T03:54:43;5.05;;;3.90;;
50853;SDS011;44154;45.506;-122.806;2022-10-17T03:57:10;4.53;;;3.08;;
50853;SDS011;44154;45.506;-122.806;2022-10-17T03:59:36;5.35;;;3.50;;
50853;SDS011;44154;45.506;-122.806;2022-10-17T04:02:02;4.22;;;3.42;;
50853;SDS011;44154;45.506;-122.806;2022-10-17T04:04:28;5.55;;;3.17;;
50853;SDS011;44154;45.506;-122.806;2022-10-17T04:06:55;4.38;;;3.00;;
50853;SDS011;44154;45.506;-122.806;2022-10-17T04:09:21;3.90;;;2.90;;
50853;SDS011;44154;45.506;-122.806;2022-10-17T04:11:47;4.18;;;2.90;;
50853;SDS011;44154;45.506;-122.806;2022-10-17T04:14:13;4.78;;;3.47;;
50853;SDS011;44154;45.506;-122.806;2022-10-17T04:16:39;3.40;;;2.75;;
50853;SDS011;44154;45.506;-122.806;2022-10-17T04:19:05;3.78;;;2.90;;
50853;SDS011;44154;45.506;-122.806;2022-10-17T04:21:32;3.17;;;2.45;;
50853;SDS011;44154;45.506;-122.806;2022-10-17T04:23:59;3.28;;;2.40;;
50853;SDS011;44154;45.506;-122.806;2022-10-17T04:26:25;3.55;;;2.63;;
50853;SDS011;44154;45.506;-122.806;2022-10-17T04:28:52;4.05;;;2.88;;
50853;SDS011;44154;45.506;-122.806;2022-10-17T04:31:18;4.13;;;2.65;;
50853;SDS011;44154;45.506;-122.806;2022-10-17T04:33:47;3.40;;;2.63;;
50853;SDS011;44154;45.506;-122.806;2022-10-17T04:36:18;3.25;;;2.65;;
50853;SDS011;44154;45.506;-122.806;2022-10-17T04:38:48;3.45;;;2.60;;
50853;SDS011;44154;45.506;-122.806;2022-10-17T04:41:15;6.00;;;2.70;;
50853;SDS011;44154;45.506;-122.806;2022-10-17T04:43:42;3.47;;;2.38;;
50853;SDS011;44154;45.506;-122.806;2022-10-17T04:46:10;4.63;;;2.35;;
50853;SDS011;44154;45.506;-122.806;2022-10-17T04:48:38;4.05;;;2.15;;
50853;SDS011;44154;45.506;-122.806;2022-10-17T04:51:09;4.38;;;2.33;;
50853;SDS011;44154;45.506;-122.806;2022-10-17T04:53:37;2.33;;;1.75;;
50853;SDS011;44154;45.506;-122.806;2022-10-17T04:56:08;3.88;;;1.77;;
50853;SDS011;44154;45.506;-122.806;2022-10-17T04:58:36;3.70;;;2.28;;
50853;SDS011;44154;45.506;-122.806;2022-10-17T05:01:04;3.25;;;2.30;;
50853;SDS011;44154;45.506;-122.806;2022-10-17T05:03:32;3.22;;;1.88;;
50853;SDS011;44154;45.506;-122.806;2022-10-17T05:06:09;3.25;;;1.98;;
50853;SDS011;44154;45.506;-122.806;2022-10-17T05:08:37;3.17;;;2.22;;
50853;SDS011;44154;45.506;-122.806;2022-10-17T05:11:04;3.25;;;2.47;;
50853;SDS011;44154;45.506;-122.806;2022-10-17T05:13:39;4.20;;;2.90;;
50853;SDS011;44154;45.506;-122.806;2022-10-17T05:16:05;4.03;;;2.63;;
50853;SDS011;44154;45.506;-122.806;2022-10-17T05:18:31;6.60;;;4.03;;
50853;SDS011;44154;45.506;-122.806;2022-10-17T05:20:57;4.88;;;3.40;;
50853;SDS011;44154;45.506;-122.806;2022-10-17T05:23:24;3.50;;;2.38;;
50853;SDS011;44154;45.506;-122.806;2022-10-17T05:25:53;5.15;;;3.22;;
50853;SDS011;44154;45.506;-122.806;2022-10-17T05:28:20;5.45;;;2.83;;
50853;SDS011;44154;45.506;-122.806;2022-10-17T05:30:47;5.35;;;3.20;;
50853;SDS011;44154;45.506;-122.806;2022-10-17T05:33:13;4.93;;;3.95;;
50853;SDS011;44154;45.506;-122.806;2022-10-17T05:35:39;4.70;;;3.42;;
50853;SDS011;44154;45.506;-122.806;2022-10-17T05:38:06;4.40;;;3.25;;
50853;SDS011;44154;45.506;-122.806;2022-10-17T05:40:32;5.38;;;3.60;;
50853;SDS011;44154;45.506;-122.806;2022-10-17T05:42:58;5.72;;;3.95;;
50853;SDS011;44154;45.506;-122.806;2022-10-17T05:45:27;7.70;;;4.70;;
50853;SDS011;44154;45.506;-122.806;2022-10-17T05:47:53;5.32;;;4.03;;
50853;SDS011;44154;45.506;-122.806;2022-10-17T05:50:20;5.60;;;4.15;;
50853;SDS011;44154;45.506;-122.806;2022-10-17T05:52:51;6.00;;;4.22;;
50853;SDS011;44154;45.506;-122.806;2022-10-17T05:55:18;6.25;;;4.45;;
50853;SDS011;44154;45.506;-122.806;2022-10-17T05:57:44;5.03;;;3.65;;
50853;SDS011;44154;45.506;-122.806;2022-10-17T06:00:10;5.78;;;4.13;;
50853;SDS011;44154;45.506;-122.806;2022-10-17T06:02:37;4.93;;;3.83;;
50853;SDS011;44154;45.506;-122.806;2022-10-17T06:05:03;5.45;;;3.80;;
50853;SDS011;44154;45.506;-122.806;2022-10-17T06:07:30;6.10;;;4.20;;
50853;SDS011;44154;45.506;-122.806;2022-10-17T06:09:56;5.18;;;4.28;;
50853;SDS011;44154;45.506;-122.806;2022-10-17T06:12:23;6.22;;;4.93;;
50853;SDS011;44154;45.506;-122.806;2022-10-17T06:14:49;6.38;;;4.97;;
50853;SDS011;44154;45.506;-122.806;2022-10-17T06:17:15;7.22;;;4.72;;
50853;SDS011;44154;45.506;-122.806;2022-10-17T06:19:41;6.70;;;4.80;;
50853;SDS011;44154;45.506;-122.806;2022-10-17T06:22:08;6.10;;;4.72;;
50853;SDS011;44154;45.506;-122.806;2022-10-17T06:24:35;6.55;;;4.82;;
50853;SDS011;44154;45.506;-122.806;2022-10-17T06:27:01;7.60;;;5.43;;
50853;SDS011;44154;45.506;-122.806;2022-10-17T06:29:27;6.20;;;4.85;;
50853;SDS011;44154;45.506;-122.806;2022-10-17T06:31:53;7.07;;;4.90;;
50853;SDS011;44154;45.506;-122.806;2022-10-17T06:34:19;6.10;;;4.70;;
50853;SDS011;44154;45.506;-122.806;2022-10-17T06:36:45;6.75;;;4.90;;
50853;SDS011;44154;45.506;-122.806;2022-10-17T06:39:12;8.50;;;5.03;;
50853;SDS011;44154;45.506;-122.806;2022-10-17T06:41:39;6.38;;;4.85;;
50853;SDS011;44154;45.506;-122.806;2022-10-17T06:44:06;9.07;;;5.13;;
50853;SDS011;44154;45.506;-122.806;2022-10-17T06:46:38;6.70;;;4.93;;
50853;SDS011;44154;45.506;-122.806;2022-10-17T06:49:05;7.68;;;5.35;;
50853;SDS011;44154;45.506;-122.806;2022-10-17T06:51:35;8.70;;;5.80;;
50853;SDS011;44154;45.506;-122.806;2022-10-17T06:54:02;6.00;;;4.70;;
50853;SDS011;44154;45.506;-122.806;2022-10-17T06:56:28;8.07;;;4.90;;
50853;SDS011;44154;45.506;-122.806;2022-10-17T06:58:54;7.38;;;5.15;;
50853;SDS011;44154;45.506;-122.806;2022-10-17T07:01:20;6.75;;;5.03;;
50853;SDS011;44154;45.506;-122.806;2022-10-17T07:03:47;7.25;;;5.20;;
50853;SDS011;44154;45.506;-122.806;2022-10-17T07:06:16;6.78;;;5.30;;
50853;SDS011;44154;45.506;-122.806;2022-10-17T07:08:43;9.60;;;5.38;;
50853;SDS011;44154;45.506;-122.806;2022-10-17T07:11:14;6.43;;;5.30;;
50853;SDS011;44154;45.506;-122.806;2022-10-17T07:13:41;7.10;;;5.32;;
50853;SDS011;44154;45.506;-122.806;2022-10-17T07:16:08;7.68;;;5.28;;
50853;SDS011;44154;45.506;-122.806;2022-10-17T07:18:35;6.72;;;4.93;;
50853;SDS011;44154;45.506;-122.806;2022-10-17T07:21:01;6.47;;;5.20;;
50853;SDS011;44154;45.506;-122.806;2022-10-17T07:23:28;7.38;;;5.72;;
50853;SDS011;44154;45.506;-122.806;2022-10-17T07:26:01;7.35;;;5.30;;
50853;SDS011;44154;45.506;-122.806;2022-10-17T07:28:32;6.25;;;4.68;;
50853;SDS011;44154;45.506;-122.806;2022-10-17T07:31:07;6.22;;;4.32;;
50853;SDS011;44154;45.506;-122.806;2022-10-17T07:33:34;7.72;;;5.00;;
50853;SDS011;44154;45.506;-122.806;2022-10-17T07:36:01;7.25;;;4.90;;
50853;SDS011;44154;45.506;-122.806;2022-10-17T07:38:28;5.97;;;4.85;;
50853;SDS011;44154;45.506;-122.806;2022-10-17T07:40:59;6.20;;;5.00;;
50853;SDS011;44154;45.506;-122.806;2022-10-17T07:43:27;5.35;;;4.40;;
50853;SDS011;44154;45.506;-122.806;2022-10-17T07:45:54;6.05;;;4.60;;
50853;SDS011;44154;45.506;-122.806;2022-10-17T07:48:21;5.88;;;4.88;;
50853;SDS011;44154;45.506;-122.806;2022-10-17T07:50:48;6.88;;;4.68;;
50853;SDS011;44154;45.506;-122.806;2022-10-17T07:53:15;7.97;;;5.28;;
50853;SDS011;44154;45.506;-122.806;2022-10-17T07:55:41;8.02;;;5.60;;
50853;SDS011;44154;45.506;-122.806;2022-10-17T07:58:11;7.35;;;5.40;;
50853;SDS011;44154;45.506;-122.806;2022-10-17T08:00:37;6.60;;;4.88;;
50853;SDS011;44154;45.506;-122.806;2022-10-17T08:03:04;7.10;;;4.80;;
50853;SDS011;44154;45.506;-122.806;2022-10-17T08:05:31;6.85;;;4.95;;
50853;SDS011;44154;45.506;-122.806;2022-10-17T08:07:58;7.07;;;5.25;;
50853;SDS011;44154;45.506;-122.806;2022-10-17T08:10:24;5.65;;;4.72;;
50853;SDS011;44154;45.506;-122.806;2022-10-17T08:12:56;6.63;;;5.15;;
50853;SDS011;44154;45.506;-122.806;2022-10-17T08:15:23;6.28;;;4.53;;
50853;SDS011;44154;45.506;-122.806;2022-10-17T08:17:51;7.30;;;5.05;;
50853;SDS011;44154;45.506;-122.806;2022-10-17T08:20:19;6.85;;;5.32;;
50853;SDS011;44154;45.506;-122.806;2022-10-17T08:22:55;8.32;;;5.07;;
50853;SDS011;44154;45.506;-122.806;2022-10-17T08:25:21;5.25;;;4.45;;
50853;SDS011;44154;45.506;-122.806;2022-10-17T08:27:48;7.40;;;5.10;;
50853;SDS011;44154;45.506;-122.806;2022-10-17T08:30:14;6.72;;;5.10;;
50853;SDS011;44154;45.506;-122.806;2022-10-17T08:32:41;6.80;;;4.60;;
50853;SDS011;44154;45.506;-122.806;2022-10-17T08:35:08;5.47;;;4.45;;
50853;SDS011;44154;45.506;-122.806;2022-10-17T08:37:34;6.30;;;4.88;;
50853;SDS011;44154;45.506;-122.806;2022-10-17T08:40:00;6.47;;;4.93;;
50853;SDS011;44154;45.506;-122.806;2022-10-17T08:42:33;6.03;;;5.00;;
50853;SDS011;44154;45.506;-122.806;2022-10-17T08:45:29;6.22;;;4.97;;
50853;SDS011;44154;45.506;-122.806;2022-10-17T08:48:01;6.65;;;4.85;;
50853;SDS011;44154;45.506;-122.806;2022-10-17T08:50:39;6.90;;;5.00;;
50853;SDS011;44154;45.506;-122.806;2022-10-17T08:53:28;6.68;;;5.32;;
50853;SDS011;44154;45.506;-122.806;2022-10-17T08:56:01;5.78;;;4.57;;
50853;SDS011;44154;45.506;-122.806;2022-10-17T08:58:38;6.30;;;4.85;;
50853;SDS011;44154;45.506;-122.806;2022-10-17T09:20:22;6.30;;;4.82;;
50853;SDS011;44154;45.506;-122.806;2022-10-17T09:23:03;6.78;;;5.50;;
50853;SDS011;44154;45.506;-122.806;2022-10-17T09:25:53;6.18;;;5.20;;
50853;SDS011;44154;45.506;-122.806;2022-10-17T09:33:28;5.05;;;4.40;;
50853;SDS011;44154;45.506;-122.806;2022-10-17T09:35:59;5.60;;;4.43;;
50853;SDS011;44154;45.506;-122.806;2022-10-17T09:38:29;5.45;;;3.47;;
50853;SDS011;44154;45.506;-122.806;2022-10-17T09:41:03;5.15;;;3.17;;
50853;SDS011;44154;45.506;-122.806;2022-10-17T09:43:38;4.88;;;3.17;;
50853;SDS011;44154;45.506;-122.806;2022-10-17T09:46:06;6.85;;;2.97;;
50853;SDS011;44154;45.506;-122.806;2022-10-17T09:48:49;3.13;;;2.00;;
50853;SDS011;44154;45.506;-122.806;2022-10-17T09:51:20;3.95;;;2.22;;
50853;SDS011;44154;45.506;-122.806;2022-10-17T09:53:53;2.63;;;2.20;;
50853;SDS011;44154;45.506;-122.806;2022-10-17T09:56:24;2.78;;;2.00;;
50853;SDS011;44154;45.506;-122.806;2022-10-17T09:58:51;2.05;;;1.63;;
50853;SDS011;44154;45.506;-122.806;2022-10-17T10:01:25;2.83;;;1.77;;
50853;SDS011;44154;45.506;-122.806;2022-10-17T10:06:32;2.22;;;1.85;;
50853;SDS011;44154;45.506;-122.806;2022-10-17T10:08:59;1.50;;;1.15;;
50853;SDS011;44154;45.506;-122.806;2022-10-17T10:14:34;1.80;;;1.30;;
50853;SDS011;44154;45.506;-122.806;2022-10-17T10:17:03;1.52;;;1.05;;
50853;SDS011;44154;45.506;-122.806;2022-10-17T10:19:49;1.70;;;1.10;;
50853;SDS011;44154;45.506;-122.806;2022-10-17T10:22:16;2.00;;;1.10;;
50853;SDS011;44154;45.506;-122.806;2022-10-17T10:24:43;1.30;;;0.90;;
50853;SDS011;44154;45.506;-122.806;2022-10-17T10:27:14;1.30;;;0.90;;
50853;SDS011;44154;45.506;-122.806;2022-10-17T10:29:42;1.40;;;0.70;;
50853;SDS011;44154;45.506;-122.806;2022-10-17T10:32:22;1.52;;;1.00;;
50853;SDS011;44154;45.506;-122.806;2022-10-17T10:39:56;1.38;;;0.90;;
50853;SDS011;44154;45.506;-122.806;2022-10-17T10:42:31;1.15;;;0.82;;
50853;SDS011;44154;45.506;-122.806;2022-10-17T10:45:03;0.60;;;0.60;;
50853;SDS011;44154;45.506;-122.806;2022-10-17T10:55:59;0.95;;;0.70;;
50853;SDS011;44154;45.506;-122.806;2022-10-17T11:06:33;1.65;;;0.60;;
50853;SDS011;44154;45.506;-122.806;2022-10-17T11:09:09;0.82;;;0.57;;
50853;SDS011;44154;45.506;-122.806;2022-10-17T11:12:09;1.50;;;0.70;;
50853;SDS011;44154;45.506;-122.806;2022-10-17T11:17:31;3.08;;;0.50;;
50853;SDS011;44154;45.506;-122.806;2022-10-17T11:20:02;1.85;;;0.80;;
50853;SDS011;44154;45.506;-122.806;2022-10-17T11:22:30;1.13;;;0.68;;
50853;SDS011;44154;45.506;-122.806;2022-10-17T11:25:15;0.80;;;0.40;;
50853;SDS011;44154;45.506;-122.806;2022-10-17T11:27:47;0.70;;;0.50;;
50853;SDS011;44154;45.506;-122.806;2022-10-17T11:30:13;0.75;;;0.50;;
50853;SDS011;44154;45.506;-122.806;2022-10-17T11:32:51;0.60;;;0.40;;
50853;SDS011;44154;45.506;-122.806;2022-10-17T11:37:57;0.63;;;0.40;;
50853;SDS011;44154;45.506;-122.806;2022-10-17T11:40:40;0.70;;;0.50;;
50853;SDS011;44154;45.506;-122.806;2022-10-17T11:43:10;0.52;;;0.38;;
50853;SDS011;44154;45.506;-122.806;2022-10-17T11:48:28;0.82;;;0.52;;
50853;SDS011;44154;45.506;-122.806;2022-10-17T11:51:07;0.90;;;0.50;;
50853;SDS011;44154;45.506;-122.806;2022-10-17T11:53:44;0.95;;;0.43;;
50853;SDS011;44154;45.506;-122.806;2022-10-17T11:56:16;1.17;;;0.70;;
50853;SDS011;44154;45.506;-122.806;2022-10-17T11:58:53;0.65;;;0.43;;
50853;SDS011;44154;45.506;-122.806;2022-10-17T12:01:51;0.90;;;0.57;;
50853;SDS011;44154;45.506;-122.806;2022-10-17T12:12:29;0.50;;;0.40;;
50853;SDS011;44154;45.506;-122.806;2022-10-17T12:17:39;0.65;;;0.45;;
50853;SDS011;44154;45.506;-122.806;2022-10-17T12:22:51;1.40;;;0.50;;
50853;SDS011;44154;45.506;-122.806;2022-10-17T12:25:20;0.80;;;0.60;;
50853;SDS011;44154;45.506;-122.806;2022-10-17T12:27:47;0.95;;;0.50;;
50853;SDS011;44154;45.506;-122.806;2022-10-17T12:30:24;0.75;;;0.60;;
50853;SDS011;44154;45.506;-122.806;2022-10-17T12:32:56;0.95;;;0.50;;
50853;SDS011;44154;45.506;-122.806;2022-10-17T12:35:26;0.70;;;0.40;;
50853;SDS011;44154;45.506;-122.806;2022-10-17T12:43:01;0.73;;;0.40;;
50853;SDS011;44154;45.506;-122.806;2022-10-17T12:45:51;0.90;;;0.50;;
50853;SDS011;44154;45.506;-122.806;2022-10-17T12:51:14;0.82;;;0.40;;
50853;SDS011;44154;45.506;-122.806;2022-10-17T12:56:21;0.60;;;0.40;;
50853;SDS011;44154;45.506;-122.806;2022-10-17T12:59:00;1.10;;;0.60;;
50853;SDS011;44154;45.506;-122.806;2022-10-17T13:01:39;0.57;;;0.30;;
50853;SDS011;44154;45.506;-122.806;2022-10-17T13:04:09;0.88;;;0.55;;
50853;SDS011;44154;45.506;-122.806;2022-10-17T13:06:44;1.00;;;0.70;;
50853;SDS011;44154;45.506;-122.806;2022-10-17T13:09:34;0.75;;;0.52;;
50853;SDS011;44154;45.506;-122.806;2022-10-17T13:12:02;0.93;;;0.40;;
50853;SDS011;44154;45.506;-122.806;2022-10-17T13:14:31;0.82;;;0.50;;
50853;SDS011;44154;45.506;-122.806;2022-10-17T13:16:59;0.50;;;0.40;;
50853;SDS011;44154;45.506;-122.806;2022-10-17T13:19:31;0.68;;;0.50;;
50853;SDS011;44154;45.506;-122.806;2022-10-17T13:22:14;0.70;;;0.40;;
50853;SDS011;44154;45.506;-122.806;2022-10-17T13:24:43;0.47;;;0.30;;
50853;SDS011;44154;45.506;-122.806;2022-10-17T13:32:52;0.90;;;0.50;;
50853;SDS011;44154;45.506;-122.806;2022-10-17T13:35:28;0.75;;;0.40;;
50853;SDS011;44154;45.506;-122.806;2022-10-17T13:38:03;0.63;;;0.40;;
50853;SDS011;44154;45.506;-122.806;2022-10-17T13:40:42;0.50;;;0.40;;
50853;SDS011;44154;45.506;-122.806;2022-10-17T13:43:16;1.00;;;0.60;;
50853;SDS011;44154;45.506;-122.806;2022-10-17T13:45:48;0.60;;;0.55;;
50853;SDS011;44154;45.506;-122.806;2022-10-17T13:48:21;0.70;;;0.40;;
50853;SDS011;44154;45.506;-122.806;2022-10-17T13:50:52;0.88;;;0.40;;
50853;SDS011;44154;45.506;-122.806;2022-10-17T13:53:28;0.95;;;0.43;;
50853;SDS011;44154;45.506;-122.806;2022-10-17T13:58:25;1.08;;;0.30;;
50853;SDS011;44154;45.506;-122.806;2022-10-17T14:00:54;0.50;;;0.40;;
50853;SDS011;44154;45.506;-122.806;2022-10-17T14:03:21;0.85;;;0.50;;
50853;SDS011;44154;45.506;-122.806;2022-10-17T14:05:57;0.73;;;0.30;;
50853;SDS011;44154;45.506;-122.806;2022-10-17T14:08:30;0.80;;;0.50;;
50853;SDS011;44154;45.506;-122.806;2022-10-17T14:10:58;0.70;;;0.50;;
50853;SDS011;44154;45.506;-122.806;2022-10-17T14:13:25;0.80;;;0.50;;
50853;SDS011;44154;45.506;-122.806;2022-10-17T14:15:55;0.70;;;0.40;;
50853;SDS011;44154;45.506;-122.806;2022-10-17T14:18:27;0.90;;;0.50;;
